sensor_id;sensor_type;location;lat;lon;timestamp;temperature;humidity
44747;DHT22;30472;49.490;10.972;2022-08-19T00:01:49;19.30;99.90
44747;DHT22;30472;49.490;10.972;2022-08-19T00:04:16;19.30;99.90
44747;DHT22;30472;49.490;10.972;2022-08-19T00:06:43;19.30;99.90
44747;DHT22;30472;49.490;10.972;2022-08-19T00:09:11;19.30;99.90
44747;DHT22;30472;49.490;10.972;2022-08-19T00:11:38;19.30;99.90
44747;DHT22;30472;49.490;10.972;2022-08-19T00:14:08;19.30;99.90
44747;DHT22;30472;49.490;10.972;2022-08-19T00:16:36;19.20;99.90
44747;DHT22;30472;49.490;10.972;2022-08-19T00:19:02;19.20;99.90
44747;DHT22;30472;49.490;10.972;2022-08-19T00:21:28;19.10;99.90
44747;DHT22;30472;49.490;10.972;2022-08-19T00:23:54;19.10;99.90
44747;DHT22;30472;49.490;10.972;2022-08-19T00:26:24;19.20;99.90
44747;DHT22;30472;49.490;10.972;2022-08-19T00:28:51;19.20;99.90
44747;DHT22;30472;49.490;10.972;2022-08-19T00:31:17;19.10;99.90
44747;DHT22;30472;49.490;10.972;2022-08-19T00:33:43;19.10;99.90
44747;DHT22;30472;49.490;10.972;2022-08-19T00:36:09;19.20;99.90
44747;DHT22;30472;49.490;10.972;2022-08-19T00:38:38;19.10;99.90
44747;DHT22;30472;49.490;10.972;2022-08-19T00:41:05;19.00;99.90
44747;DHT22;30472;49.490;10.972;2022-08-19T00:43:30;19.00;99.90
44747;DHT22;30472;49.490;10.972;2022-08-19T00:45:56;19.00;99.90
44747;DHT22;30472;49.490;10.972;2022-08-19T00:48:22;18.90;99.90
44747;DHT22;30472;49.490;10.972;2022-08-19T00:50:49;19.00;99.90
44747;DHT22;30472;49.490;10.972;2022-08-19T00:53:18;18.90;99.90
44747;DHT22;30472;49.490;10.972;2022-08-19T00:55:49;18.90;99.90
44747;DHT22;30472;49.490;10.972;2022-08-19T00:58:18;18.90;99.90
44747;DHT22;30472;49.490;10.972;2022-08-19T01:00:45;18.80;99.90
44747;DHT22;30472;49.490;10.972;2022-08-19T01:03:13;18.90;99.90
44747;DHT22;30472;49.490;10.972;2022-08-19T01:05:41;18.90;99.90
44747;DHT22;30472;49.490;10.972;2022-08-19T01:08:07;19.00;99.90
44747;DHT22;30472;49.490;10.972;2022-08-19T01:10:40;19.00;99.90
44747;DHT22;30472;49.490;10.972;2022-08-19T01:13:07;19.00;99.90
44747;DHT22;30472;49.490;10.972;2022-08-19T01:15:42;19.10;99.90
44747;DHT22;30472;49.490;10.972;2022-08-19T01:18:12;19.10;99.90
44747;DHT22;30472;49.490;10.972;2022-08-19T01:20:39;19.10;99.90
44747;DHT22;30472;49.490;10.972;2022-08-19T01:23:05;19.10;99.90
44747;DHT22;30472;49.490;10.972;2022-08-19T01:25:35;19.10;99.90
44747;DHT22;30472;49.490;10.972;2022-08-19T01:28:04;19.20;99.90
44747;DHT22;30472;49.490;10.972;2022-08-19T01:30:34;19.20;99.90
44747;DHT22;30472;49.490;10.972;2022-08-19T01:33:00;19.20;99.90
44747;DHT22;30472;49.490;10.972;2022-08-19T01:35:29;19.30;99.90
44747;DHT22;30472;49.490;10.972;2022-08-19T01:37:59;19.20;99.90
44747;DHT22;30472;49.490;10.972;2022-08-19T01:40:29;19.20;99.90
44747;DHT22;30472;49.490;10.972;2022-08-19T01:42:56;19.30;99.90
44747;DHT22;30472;49.490;10.972;2022-08-19T01:45:24;19.20;99.90
44747;DHT22;30472;49.490;10.972;2022-08-19T01:47:50;19.10;99.90
44747;DHT22;30472;49.490;10.972;2022-08-19T01:50:16;19.20;99.90
44747;DHT22;30472;49.490;10.972;2022-08-19T01:52:43;19.20;99.90
44747;DHT22;30472;49.490;10.972;2022-08-19T01:55:13;19.20;99.90
44747;DHT22;30472;49.490;10.972;2022-08-19T01:57:41;19.20;99.90
44747;DHT22;30472;49.490;10.972;2022-08-19T02:00:10;19.10;99.90
44747;DHT22;30472;49.490;10.972;2022-08-19T02:02:36;19.10;99.90
44747;DHT22;30472;49.490;10.972;2022-08-19T02:05:02;19.20;99.90
44747;DHT22;30472;49.490;10.972;2022-08-19T02:07:28;19.20;99.90
44747;DHT22;30472;49.490;10.972;2022-08-19T02:09:54;19.20;99.90
44747;DHT22;30472;49.490;10.972;2022-08-19T02:12:21;19.20;99.90
44747;DHT22;30472;49.490;10.972;2022-08-19T02:14:47;19.20;99.90
44747;DHT22;30472;49.490;10.972;2022-08-19T02:17:13;19.20;99.90
44747;DHT22;30472;49.490;10.972;2022-08-19T02:19:38;19.20;99.90
44747;DHT22;30472;49.490;10.972;2022-08-19T02:22:04;19.20;99.90
44747;DHT22;30472;49.490;10.972;2022-08-19T02:24:30;19.20;99.90
44747;DHT22;30472;49.490;10.972;2022-08-19T02:26:55;19.20;99.90
44747;DHT22;30472;49.490;10.972;2022-08-19T02:29:21;19.20;99.90
44747;DHT22;30472;49.490;10.972;2022-08-19T02:31:47;19.20;99.90
44747;DHT22;30472;49.490;10.972;2022-08-19T02:34:13;19.20;99.90
44747;DHT22;30472;49.490;10.972;2022-08-19T02:36:39;19.20;99.90
44747;DHT22;30472;49.490;10.972;2022-08-19T02:39:04;19.20;99.90
44747;DHT22;30472;49.490;10.972;2022-08-19T02:41:32;19.30;99.90
44747;DHT22;30472;49.490;10.972;2022-08-19T02:44:00;19.30;99.90
44747;DHT22;30472;49.490;10.972;2022-08-19T02:46:31;19.30;99.90
44747;DHT22;30472;49.490;10.972;2022-08-19T02:49:02;19.30;99.90
44747;DHT22;30472;49.490;10.972;2022-08-19T02:51:40;19.30;99.90
44747;DHT22;30472;49.490;10.972;2022-08-19T02:54:07;19.30;99.90
44747;DHT22;30472;49.490;10.972;2022-08-19T02:56:37;19.30;99.90
44747;DHT22;30472;49.490;10.972;2022-08-19T02:59:03;19.30;99.90
44747;DHT22;30472;49.490;10.972;2022-08-19T03:01:34;19.30;99.90
44747;DHT22;30472;49.490;10.972;2022-08-19T03:04:02;19.30;99.90
44747;DHT22;30472;49.490;10.972;2022-08-19T03:06:29;19.30;99.90
44747;DHT22;30472;49.490;10.972;2022-08-19T03:08:55;19.30;99.90
44747;DHT22;30472;49.490;10.972;2022-08-19T03:11:22;19.30;99.90
44747;DHT22;30472;49.490;10.972;2022-08-19T03:13:49;19.30;99.90
44747;DHT22;30472;49.490;10.972;2022-08-19T03:16:16;19.30;99.90
44747;DHT22;30472;49.490;10.972;2022-08-19T03:18:42;19.30;99.90
44747;DHT22;30472;49.490;10.972;2022-08-19T03:21:08;19.30;99.90
44747;DHT22;30472;49.490;10.972;2022-08-19T03:23:34;19.30;99.90
44747;DHT22;30472;49.490;10.972;2022-08-19T03:26:04;19.30;99.90
44747;DHT22;30472;49.490;10.972;2022-08-19T03:28:30;19.30;99.90
44747;DHT22;30472;49.490;10.972;2022-08-19T03:31:03;19.30;99.90
44747;DHT22;30472;49.490;10.972;2022-08-19T03:33:31;19.20;99.90
44747;DHT22;30472;49.490;10.972;2022-08-19T03:36:18;19.20;99.90
44747;DHT22;30472;49.490;10.972;2022-08-19T03:38:49;19.20;99.90
44747;DHT22;30472;49.490;10.972;2022-08-19T03:41:19;19.20;99.90
44747;DHT22;30472;49.490;10.972;2022-08-19T03:43:45;19.20;99.90
44747;DHT22;30472;49.490;10.972;2022-08-19T03:46:18;19.20;99.90
44747;DHT22;30472;49.490;10.972;2022-08-19T03:48:46;19.20;99.90
44747;DHT22;30472;49.490;10.972;2022-08-19T03:51:23;19.10;99.90
44747;DHT22;30472;49.490;10.972;2022-08-19T03:53:51;19.10;99.90
44747;DHT22;30472;49.490;10.972;2022-08-19T03:56:16;19.10;99.90
44747;DHT22;30472;49.490;10.972;2022-08-19T03:58:43;19.10;99.90
44747;DHT22;30472;49.490;10.972;2022-08-19T04:01:11;19.10;99.90
44747;DHT22;30472;49.490;10.972;2022-08-19T04:03:38;19.10;99.90
44747;DHT22;30472;49.490;10.972;2022-08-19T04:06:15;19.10;99.90
44747;DHT22;30472;49.490;10.972;2022-08-19T04:08:42;19.10;99.90
44747;DHT22;30472;49.490;10.972;2022-08-19T04:11:10;19.10;99.90
44747;DHT22;30472;49.490;10.972;2022-08-19T04:13:36;19.10;99.90
44747;DHT22;30472;49.490;10.972;2022-08-19T04:16:03;19.10;99.90
44747;DHT22;30472;49.490;10.972;2022-08-19T04:18:29;19.10;99.90
44747;DHT22;30472;49.490;10.972;2022-08-19T04:20:55;19.00;99.90
44747;DHT22;30472;49.490;10.972;2022-08-19T04:23:22;19.00;99.90
44747;DHT22;30472;49.490;10.972;2022-08-19T04:25:48;19.00;99.90
44747;DHT22;30472;49.490;10.972;2022-08-19T04:28:14;19.00;99.90
44747;DHT22;30472;49.490;10.972;2022-08-19T04:30:41;19.00;99.90
44747;DHT22;30472;49.490;10.972;2022-08-19T04:33:07;19.10;99.90
44747;DHT22;30472;49.490;10.972;2022-08-19T04:35:38;19.10;99.90
44747;DHT22;30472;49.490;10.972;2022-08-19T04:38:05;19.10;99.90
44747;DHT22;30472;49.490;10.972;2022-08-19T04:40:30;19.10;99.90
44747;DHT22;30472;49.490;10.972;2022-08-19T04:43:15;19.10;99.90
44747;DHT22;30472;49.490;10.972;2022-08-19T04:45:45;19.10;99.90
44747;DHT22;30472;49.490;10.972;2022-08-19T04:48:11;19.10;99.90
44747;DHT22;30472;49.490;10.972;2022-08-19T04:50:42;19.20;99.90
44747;DHT22;30472;49.490;10.972;2022-08-19T04:53:08;19.20;99.90
44747;DHT22;30472;49.490;10.972;2022-08-19T04:55:34;19.20;99.90
44747;DHT22;30472;49.490;10.972;2022-08-19T04:58:00;19.20;99.90
44747;DHT22;30472;49.490;10.972;2022-08-19T05:00:27;19.20;99.90
44747;DHT22;30472;49.490;10.972;2022-08-19T05:02:53;19.20;99.90
44747;DHT22;30472;49.490;10.972;2022-08-19T05:05:18;19.20;99.90
44747;DHT22;30472;49.490;10.972;2022-08-19T05:07:45;19.20;99.90
44747;DHT22;30472;49.490;10.972;2022-08-19T05:10:11;19.20;99.90
44747;DHT22;30472;49.490;10.972;2022-08-19T05:12:37;19.20;99.90
44747;DHT22;30472;49.490;10.972;2022-08-19T05:15:04;19.30;99.90
44747;DHT22;30472;49.490;10.972;2022-08-19T05:17:31;19.30;99.90
44747;DHT22;30472;49.490;10.972;2022-08-19T05:19:57;19.30;99.90
44747;DHT22;30472;49.490;10.972;2022-08-19T05:22:42;19.30;99.90
44747;DHT22;30472;49.490;10.972;2022-08-19T05:25:11;19.30;99.90
44747;DHT22;30472;49.490;10.972;2022-08-19T05:27:37;19.40;99.90
44747;DHT22;30472;49.490;10.972;2022-08-19T05:30:03;19.30;99.90
44747;DHT22;30472;49.490;10.972;2022-08-19T05:32:29;19.40;99.90
44747;DHT22;30472;49.490;10.972;2022-08-19T05:34:55;19.40;99.90
44747;DHT22;30472;49.490;10.972;2022-08-19T05:37:20;19.40;99.90
44747;DHT22;30472;49.490;10.972;2022-08-19T05:39:47;19.40;99.90
44747;DHT22;30472;49.490;10.972;2022-08-19T05:42:14;19.50;99.90
44747;DHT22;30472;49.490;10.972;2022-08-19T05:44:42;19.50;99.90
44747;DHT22;30472;49.490;10.972;2022-08-19T05:47:10;19.50;99.90
44747;DHT22;30472;49.490;10.972;2022-08-19T05:49:37;19.50;99.90
44747;DHT22;30472;49.490;10.972;2022-08-19T05:52:05;19.60;99.90
44747;DHT22;30472;49.490;10.972;2022-08-19T05:54:31;19.60;99.90
44747;DHT22;30472;49.490;10.972;2022-08-19T05:56:57;19.60;99.90
44747;DHT22;30472;49.490;10.972;2022-08-19T05:59:23;19.70;99.90
44747;DHT22;30472;49.490;10.972;2022-08-19T06:01:50;19.70;99.90
44747;DHT22;30472;49.490;10.972;2022-08-19T06:04:18;19.80;99.90
44747;DHT22;30472;49.490;10.972;2022-08-19T06:06:46;19.80;99.90
44747;DHT22;30472;49.490;10.972;2022-08-19T06:09:12;19.80;99.90
44747;DHT22;30472;49.490;10.972;2022-08-19T06:11:50;19.90;99.90
44747;DHT22;30472;49.490;10.972;2022-08-19T06:14:24;20.10;99.90
44747;DHT22;30472;49.490;10.972;2022-08-19T06:16:50;20.10;99.90
44747;DHT22;30472;49.490;10.972;2022-08-19T06:19:20;20.20;99.90
44747;DHT22;30472;49.490;10.972;2022-08-19T06:21:48;20.30;99.90
44747;DHT22;30472;49.490;10.972;2022-08-19T06:24:18;20.40;99.90
44747;DHT22;30472;49.490;10.972;2022-08-19T06:26:46;20.50;99.90
44747;DHT22;30472;49.490;10.972;2022-08-19T06:29:14;20.60;99.90
44747;DHT22;30472;49.490;10.972;2022-08-19T06:31:45;20.60;99.90
44747;DHT22;30472;49.490;10.972;2022-08-19T06:34:12;20.70;99.90
44747;DHT22;30472;49.490;10.972;2022-08-19T06:36:40;20.80;99.90
44747;DHT22;30472;49.490;10.972;2022-08-19T06:39:19;20.80;99.90
44747;DHT22;30472;49.490;10.972;2022-08-19T06:41:47;20.90;99.90
44747;DHT22;30472;49.490;10.972;2022-08-19T06:44:14;20.90;99.90
44747;DHT22;30472;49.490;10.972;2022-08-19T06:46:40;21.10;99.90
44747;DHT22;30472;49.490;10.972;2022-08-19T06:49:06;21.50;99.90
44747;DHT22;30472;49.490;10.972;2022-08-19T06:51:34;21.90;99.90
44747;DHT22;30472;49.490;10.972;2022-08-19T06:54:00;22.20;99.90
44747;DHT22;30472;49.490;10.972;2022-08-19T06:56:29;22.20;99.90
44747;DHT22;30472;49.490;10.972;2022-08-19T06:59:00;22.20;99.90
44747;DHT22;30472;49.490;10.972;2022-08-19T07:01:26;22.20;99.90
44747;DHT22;30472;49.490;10.972;2022-08-19T07:03:51;22.00;99.90
44747;DHT22;30472;49.490;10.972;2022-08-19T07:06:18;21.90;99.90
44747;DHT22;30472;49.490;10.972;2022-08-19T07:08:46;21.70;99.90
44747;DHT22;30472;49.490;10.972;2022-08-19T07:11:14;21.60;99.90
44747;DHT22;30472;49.490;10.972;2022-08-19T07:13:41;21.50;99.90
44747;DHT22;30472;49.490;10.972;2022-08-19T07:16:12;21.50;99.90
44747;DHT22;30472;49.490;10.972;2022-08-19T07:18:40;21.40;99.90
44747;DHT22;30472;49.490;10.972;2022-08-19T07:21:09;21.40;99.90
44747;DHT22;30472;49.490;10.972;2022-08-19T07:23:35;21.40;99.90
44747;DHT22;30472;49.490;10.972;2022-08-19T07:26:09;21.30;99.90
44747;DHT22;30472;49.490;10.972;2022-08-19T07:28:35;21.30;99.90
44747;DHT22;30472;49.490;10.972;2022-08-19T07:31:16;21.30;99.90
44747;DHT22;30472;49.490;10.972;2022-08-19T07:33:44;21.30;99.90
44747;DHT22;30472;49.490;10.972;2022-08-19T07:36:11;21.40;99.90
44747;DHT22;30472;49.490;10.972;2022-08-19T07:38:41;21.30;99.90
44747;DHT22;30472;49.490;10.972;2022-08-19T07:41:09;21.40;99.90
44747;DHT22;30472;49.490;10.972;2022-08-19T07:43:35;21.40;99.90
44747;DHT22;30472;49.490;10.972;2022-08-19T07:46:01;21.40;99.90
44747;DHT22;30472;49.490;10.972;2022-08-19T07:48:27;21.30;99.90
44747;DHT22;30472;49.490;10.972;2022-08-19T07:51:00;21.30;99.90
44747;DHT22;30472;49.490;10.972;2022-08-19T07:53:30;21.20;99.90
44747;DHT22;30472;49.490;10.972;2022-08-19T07:55:56;21.20;99.90
44747;DHT22;30472;49.490;10.972;2022-08-19T07:58:30;21.10;99.90
44747;DHT22;30472;49.490;10.972;2022-08-19T08:00:55;21.10;99.90
44747;DHT22;30472;49.490;10.972;2022-08-19T08:03:22;21.00;99.90
44747;DHT22;30472;49.490;10.972;2022-08-19T08:06:08;20.90;99.90
44747;DHT22;30472;49.490;10.972;2022-08-19T08:08:52;20.80;99.90
44747;DHT22;30472;49.490;10.972;2022-08-19T08:11:42;20.70;99.90
44747;DHT22;30472;49.490;10.972;2022-08-19T08:14:18;20.80;99.90
44747;DHT22;30472;49.490;10.972;2022-08-19T08:16:45;20.80;99.90
44747;DHT22;30472;49.490;10.972;2022-08-19T08:19:12;20.80;99.90
44747;DHT22;30472;49.490;10.972;2022-08-19T08:21:40;20.80;99.90
44747;DHT22;30472;49.490;10.972;2022-08-19T08:24:06;20.80;99.90
44747;DHT22;30472;49.490;10.972;2022-08-19T08:26:31;20.90;99.90
44747;DHT22;30472;49.490;10.972;2022-08-19T08:28:57;21.00;99.90
44747;DHT22;30472;49.490;10.972;2022-08-19T08:31:22;20.80;99.90
44747;DHT22;30472;49.490;10.972;2022-08-19T08:33:49;20.90;99.90
44747;DHT22;30472;49.490;10.972;2022-08-19T08:36:14;21.00;99.90
44747;DHT22;30472;49.490;10.972;2022-08-19T08:38:41;21.20;99.90
44747;DHT22;30472;49.490;10.972;2022-08-19T08:43:49;21.70;99.90
44747;DHT22;30472;49.490;10.972;2022-08-19T08:46:44;22.10;99.90
44747;DHT22;30472;49.490;10.972;2022-08-19T08:52:23;22.30;99.90
44747;DHT22;30472;49.490;10.972;2022-08-19T08:54:52;22.40;99.90
44747;DHT22;30472;49.490;10.972;2022-08-19T08:59:57;22.20;99.90
44747;DHT22;30472;49.490;10.972;2022-08-19T09:02:26;22.10;99.90
44747;DHT22;30472;49.490;10.972;2022-08-19T09:04:54;21.90;99.90
44747;DHT22;30472;49.490;10.972;2022-08-19T09:07:58;21.80;99.90
44747;DHT22;30472;49.490;10.972;2022-08-19T09:15:47;21.50;99.90
44747;DHT22;30472;49.490;10.972;2022-08-19T09:18:14;21.40;99.90
44747;DHT22;30472;49.490;10.972;2022-08-19T09:20:42;21.40;99.90
44747;DHT22;30472;49.490;10.972;2022-08-19T09:23:07;21.40;99.90
44747;DHT22;30472;49.490;10.972;2022-08-19T09:25:34;21.40;99.90
44747;DHT22;30472;49.490;10.972;2022-08-19T09:28:00;21.30;99.90
44747;DHT22;30472;49.490;10.972;2022-08-19T09:30:36;21.30;99.90
44747;DHT22;30472;49.490;10.972;2022-08-19T09:33:04;21.20;99.90
44747;DHT22;30472;49.490;10.972;2022-08-19T09:35:31;21.20;99.90
44747;DHT22;30472;49.490;10.972;2022-08-19T09:37:57;21.20;99.90
44747;DHT22;30472;49.490;10.972;2022-08-19T09:40:24;21.20;99.90
44747;DHT22;30472;49.490;10.972;2022-08-19T09:42:51;21.20;99.90
44747;DHT22;30472;49.490;10.972;2022-08-19T09:45:19;21.20;99.90
44747;DHT22;30472;49.490;10.972;2022-08-19T09:47:52;21.20;99.90
44747;DHT22;30472;49.490;10.972;2022-08-19T09:50:18;21.20;99.90
44747;DHT22;30472;49.490;10.972;2022-08-19T09:52:44;21.10;99.90
44747;DHT22;30472;49.490;10.972;2022-08-19T09:55:11;21.10;99.90
44747;DHT22;30472;49.490;10.972;2022-08-19T09:57:36;21.10;99.90
44747;DHT22;30472;49.490;10.972;2022-08-19T10:00:07;21.20;99.90
44747;DHT22;30472;49.490;10.972;2022-08-19T10:02:34;21.30;99.90
44747;DHT22;30472;49.490;10.972;2022-08-19T10:05:00;21.50;99.90
44747;DHT22;30472;49.490;10.972;2022-08-19T10:07:44;21.50;99.90
44747;DHT22;30472;49.490;10.972;2022-08-19T10:10:10;21.60;99.90
44747;DHT22;30472;49.490;10.972;2022-08-19T10:12:36;21.60;99.90
44747;DHT22;30472;49.490;10.972;2022-08-19T10:15:04;21.60;99.90
44747;DHT22;30472;49.490;10.972;2022-08-19T10:17:30;21.50;99.90
44747;DHT22;30472;49.490;10.972;2022-08-19T10:19:59;21.40;99.90
44747;DHT22;30472;49.490;10.972;2022-08-19T10:22:25;21.30;99.90
44747;DHT22;30472;49.490;10.972;2022-08-19T10:24:51;21.30;99.90
44747;DHT22;30472;49.490;10.972;2022-08-19T10:27:17;21.30;99.90
44747;DHT22;30472;49.490;10.972;2022-08-19T10:29:43;21.20;99.90
44747;DHT22;30472;49.490;10.972;2022-08-19T10:32:09;21.20;99.90
44747;DHT22;30472;49.490;10.972;2022-08-19T10:34:36;21.30;99.90
44747;DHT22;30472;49.490;10.972;2022-08-19T10:37:04;21.40;99.90
44747;DHT22;30472;49.490;10.972;2022-08-19T10:39:35;21.50;99.90
44747;DHT22;30472;49.490;10.972;2022-08-19T10:42:07;21.50;99.90
44747;DHT22;30472;49.490;10.972;2022-08-19T10:44:35;21.60;99.90
44747;DHT22;30472;49.490;10.972;2022-08-19T10:47:02;21.60;99.90
44747;DHT22;30472;49.490;10.972;2022-08-19T10:49:28;21.60;99.90
44747;DHT22;30472;49.490;10.972;2022-08-19T10:51:55;21.50;99.90
44747;DHT22;30472;49.490;10.972;2022-08-19T10:54:39;21.50;99.90
44747;DHT22;30472;49.490;10.972;2022-08-19T10:57:23;21.60;99.90
44747;DHT22;30472;49.490;10.972;2022-08-19T10:59:55;21.70;99.90
44747;DHT22;30472;49.490;10.972;2022-08-19T11:02:21;21.80;99.90
44747;DHT22;30472;49.490;10.972;2022-08-19T11:04:47;21.90;99.90
44747;DHT22;30472;49.490;10.972;2022-08-19T11:07:15;21.90;99.90
44747;DHT22;30472;49.490;10.972;2022-08-19T11:09:42;21.80;99.90
44747;DHT22;30472;49.490;10.972;2022-08-19T11:12:08;21.70;99.90
44747;DHT22;30472;49.490;10.972;2022-08-19T11:14:35;21.70;99.90
44747;DHT22;30472;49.490;10.972;2022-08-19T11:17:03;21.60;99.90
44747;DHT22;30472;49.490;10.972;2022-08-19T11:19:28;21.50;99.90
44747;DHT22;30472;49.490;10.972;2022-08-19T11:21:54;21.50;99.90
44747;DHT22;30472;49.490;10.972;2022-08-19T11:24:22;21.50;99.90
44747;DHT22;30472;49.490;10.972;2022-08-19T11:26:51;21.40;99.90
44747;DHT22;30472;49.490;10.972;2022-08-19T11:29:21;21.40;99.90
44747;DHT22;30472;49.490;10.972;2022-08-19T11:31:51;21.40;99.90
44747;DHT22;30472;49.490;10.972;2022-08-19T11:34:19;21.40;99.90
44747;DHT22;30472;49.490;10.972;2022-08-19T11:36:47;21.40;99.90
44747;DHT22;30472;49.490;10.972;2022-08-19T11:39:15;21.30;99.90
44747;DHT22;30472;49.490;10.972;2022-08-19T11:41:40;21.40;99.90
44747;DHT22;30472;49.490;10.972;2022-08-19T11:44:06;21.40;99.90
44747;DHT22;30472;49.490;10.972;2022-08-19T11:46:35;21.40;99.90
44747;DHT22;30472;49.490;10.972;2022-08-19T11:49:02;21.40;99.90
44747;DHT22;30472;49.490;10.972;2022-08-19T11:51:29;21.60;99.90
44747;DHT22;30472;49.490;10.972;2022-08-19T11:53:55;21.60;99.90
44747;DHT22;30472;49.490;10.972;2022-08-19T11:56:22;21.60;99.90
44747;DHT22;30472;49.490;10.972;2022-08-19T11:58:49;21.70;99.90
44747;DHT22;30472;49.490;10.972;2022-08-19T12:01:17;21.70;99.90
44747;DHT22;30472;49.490;10.972;2022-08-19T12:03:44;21.60;99.90
44747;DHT22;30472;49.490;10.972;2022-08-19T12:06:13;21.70;99.90
44747;DHT22;30472;49.490;10.972;2022-08-19T12:08:40;21.60;99.90
44747;DHT22;30472;49.490;10.972;2022-08-19T12:11:06;21.60;99.90
44747;DHT22;30472;49.490;10.972;2022-08-19T12:13:36;21.60;99.90
44747;DHT22;30472;49.490;10.972;2022-08-19T12:16:08;21.50;99.90
44747;DHT22;30472;49.490;10.972;2022-08-19T12:18:34;21.40;99.90
44747;DHT22;30472;49.490;10.972;2022-08-19T12:21:00;21.30;99.90
44747;DHT22;30472;49.490;10.972;2022-08-19T12:23:26;21.20;99.90
44747;DHT22;30472;49.490;10.972;2022-08-19T12:25:52;21.10;99.90
44747;DHT22;30472;49.490;10.972;2022-08-19T12:28:22;20.90;99.90
44747;DHT22;30472;49.490;10.972;2022-08-19T12:30:50;20.80;99.90
44747;DHT22;30472;49.490;10.972;2022-08-19T12:33:17;20.70;99.90
44747;DHT22;30472;49.490;10.972;2022-08-19T12:35:46;20.60;99.90
44747;DHT22;30472;49.490;10.972;2022-08-19T12:38:13;20.40;99.90
44747;DHT22;30472;49.490;10.972;2022-08-19T12:40:40;20.30;99.90
44747;DHT22;30472;49.490;10.972;2022-08-19T12:43:07;20.20;99.90
44747;DHT22;30472;49.490;10.972;2022-08-19T12:45:33;20.00;99.90
44747;DHT22;30472;49.490;10.972;2022-08-19T12:47:58;20.00;99.90
44747;DHT22;30472;49.490;10.972;2022-08-19T12:50:24;19.90;99.90
44747;DHT22;30472;49.490;10.972;2022-08-19T12:52:50;19.80;99.90
44747;DHT22;30472;49.490;10.972;2022-08-19T12:55:15;19.80;99.90
44747;DHT22;30472;49.490;10.972;2022-08-19T12:57:42;19.70;99.90
44747;DHT22;30472;49.490;10.972;2022-08-19T13:00:13;19.70;99.90
44747;DHT22;30472;49.490;10.972;2022-08-19T13:02:41;19.70;99.90
44747;DHT22;30472;49.490;10.972;2022-08-19T13:05:11;19.70;99.90
44747;DHT22;30472;49.490;10.972;2022-08-19T13:07:38;19.80;99.90
44747;DHT22;30472;49.490;10.972;2022-08-19T13:10:06;19.80;99.90
44747;DHT22;30472;49.490;10.972;2022-08-19T13:12:32;19.80;99.90
44747;DHT22;30472;49.490;10.972;2022-08-19T13:14:59;19.90;99.90
44747;DHT22;30472;49.490;10.972;2022-08-19T13:17:24;19.90;99.90
44747;DHT22;30472;49.490;10.972;2022-08-19T13:19:50;19.90;99.90
44747;DHT22;30472;49.490;10.972;2022-08-19T13:22:17;20.10;99.90
44747;DHT22;30472;49.490;10.972;2022-08-19T13:24:42;20.10;99.90
44747;DHT22;30472;49.490;10.972;2022-08-19T13:27:08;20.10;99.90
44747;DHT22;30472;49.490;10.972;2022-08-19T13:29:34;20.10;99.90
44747;DHT22;30472;49.490;10.972;2022-08-19T13:32:18;20.20;99.90
44747;DHT22;30472;49.490;10.972;2022-08-19T13:35:03;20.10;99.90
44747;DHT22;30472;49.490;10.972;2022-08-19T13:37:29;20.20;99.90
44747;DHT22;30472;49.490;10.972;2022-08-19T13:40:09;20.20;99.90
44747;DHT22;30472;49.490;10.972;2022-08-19T13:42:41;20.20;99.90
44747;DHT22;30472;49.490;10.972;2022-08-19T13:45:08;20.10;99.90
44747;DHT22;30472;49.490;10.972;2022-08-19T13:47:35;20.00;99.90
44747;DHT22;30472;49.490;10.972;2022-08-19T13:50:04;19.90;99.90
44747;DHT22;30472;49.490;10.972;2022-08-19T13:52:30;19.90;99.90
44747;DHT22;30472;49.490;10.972;2022-08-19T13:54:56;19.90;99.90
44747;DHT22;30472;49.490;10.972;2022-08-19T13:57:22;19.90;99.90
44747;DHT22;30472;49.490;10.972;2022-08-19T13:59:47;19.80;99.90
44747;DHT22;30472;49.490;10.972;2022-08-19T14:02:13;19.90;99.90
44747;DHT22;30472;49.490;10.972;2022-08-19T14:04:38;19.80;99.90
44747;DHT22;30472;49.490;10.972;2022-08-19T14:07:04;19.80;99.90
44747;DHT22;30472;49.490;10.972;2022-08-19T14:09:30;19.80;99.90
44747;DHT22;30472;49.490;10.972;2022-08-19T14:11:56;19.80;99.90
44747;DHT22;30472;49.490;10.972;2022-08-19T14:14:22;19.80;99.90
44747;DHT22;30472;49.490;10.972;2022-08-19T14:16:48;19.80;99.90
44747;DHT22;30472;49.490;10.972;2022-08-19T14:19:14;19.80;99.90
44747;DHT22;30472;49.490;10.972;2022-08-19T14:21:39;19.70;99.90
44747;DHT22;30472;49.490;10.972;2022-08-19T14:24:06;19.70;99.90
44747;DHT22;30472;49.490;10.972;2022-08-19T14:26:32;19.70;99.90
44747;DHT22;30472;49.490;10.972;2022-08-19T14:28:57;19.70;99.90
44747;DHT22;30472;49.490;10.972;2022-08-19T14:31:23;19.60;99.90
44747;DHT22;30472;49.490;10.972;2022-08-19T14:33:50;19.60;99.90
44747;DHT22;30472;49.490;10.972;2022-08-19T14:36:17;19.60;99.90
44747;DHT22;30472;49.490;10.972;2022-08-19T14:38:42;19.60;99.90
44747;DHT22;30472;49.490;10.972;2022-08-19T14:41:16;19.60;99.90
44747;DHT22;30472;49.490;10.972;2022-08-19T14:43:49;19.60;99.90
44747;DHT22;30472;49.490;10.972;2022-08-19T14:46:18;19.60;99.90
44747;DHT22;30472;49.490;10.972;2022-08-19T14:48:47;19.60;99.90
44747;DHT22;30472;49.490;10.972;2022-08-19T14:51:13;19.50;99.90
44747;DHT22;30472;49.490;10.972;2022-08-19T14:53:40;19.50;99.90
44747;DHT22;30472;49.490;10.972;2022-08-19T14:56:13;19.40;99.90
44747;DHT22;30472;49.490;10.972;2022-08-19T14:58:43;19.40;99.90
44747;DHT22;30472;49.490;10.972;2022-08-19T15:01:10;19.30;99.90
44747;DHT22;30472;49.490;10.972;2022-08-19T15:03:36;19.30;99.90
44747;DHT22;30472;49.490;10.972;2022-08-19T15:06:03;19.20;99.90
44747;DHT22;30472;49.490;10.972;2022-08-19T15:08:31;19.10;99.90
44747;DHT22;30472;49.490;10.972;2022-08-19T15:10:58;19.00;99.90
44747;DHT22;30472;49.490;10.972;2022-08-19T15:13:25;19.00;99.90
44747;DHT22;30472;49.490;10.972;2022-08-19T15:15:52;18.80;99.90
44747;DHT22;30472;49.490;10.972;2022-08-19T15:18:18;18.70;99.90
44747;DHT22;30472;49.490;10.972;2022-08-19T15:20:46;18.70;99.90
44747;DHT22;30472;49.490;10.972;2022-08-19T15:23:13;18.70;99.90
44747;DHT22;30472;49.490;10.972;2022-08-19T15:25:40;18.50;99.90
44747;DHT22;30472;49.490;10.972;2022-08-19T15:28:07;18.50;99.90
44747;DHT22;30472;49.490;10.972;2022-08-19T15:30:37;18.50;99.90
44747;DHT22;30472;49.490;10.972;2022-08-19T15:33:03;18.40;99.90
44747;DHT22;30472;49.490;10.972;2022-08-19T15:35:30;18.40;99.90